createdAt,value
2022-12-23T00:02:31.839Z,92.68
2022-12-23T00:06:34.665Z,93.06
2022-12-23T00:10:38.296Z,92.54
2022-12-23T00:14:39.699Z,92.33
2022-12-23T00:18:42.197Z,91.50
2022-12-23T00:22:44.953Z,91.65
2022-12-23T00:26:46.366Z,91.71
2022-12-23T00:30:49.556Z,92.61
2022-12-23T00:34:50.972Z,92.71
2022-12-23T00:38:54.377Z,92.88
2022-12-23T00:42:55.803Z,92.43
2022-12-23T00:46:57.384Z,92.49
2022-12-23T00:50:58.808Z,93.35
2022-12-23T00:55:01.537Z,93.04
2022-12-23T00:59:03.338Z,92.89
2022-12-23T01:03:04.872Z,93.05
2022-12-23T01:07:06.798Z,93.12
2022-12-23T01:11:11.524Z,93.39
2022-12-23T01:15:12.953Z,92.42
2022-12-23T01:19:14.659Z,92.17
2022-12-23T01:23:16.072Z,91.79
2022-12-23T01:27:18.824Z,91.51
2022-12-23T01:31:20.272Z,90.90
2022-12-23T01:35:21.741Z,90.62
2022-12-23T01:39:23.165Z,90.71
2022-12-23T01:43:46.049Z,92.89
2022-12-23T01:47:52.389Z,90.94
2022-12-23T01:51:53.820Z,91.28
2022-12-23T01:55:58.831Z,90.79
2022-12-23T02:00:01.645Z,90.62
2022-12-23T02:04:05.992Z,90.16
2022-12-23T02:08:07.924Z,89.38
2022-12-23T02:12:41.963Z,90.48
2022-12-23T02:16:51.062Z,90.52
2022-12-23T02:21:22.630Z,91.96
2022-12-23T02:25:44.021Z,91.68
2022-12-23T02:30:24.044Z,92.38
2022-12-23T02:34:36.080Z,93.33
2022-12-23T02:38:42.866Z,92.78
2022-12-23T02:42:47.531Z,92.23
2022-12-23T02:46:52.414Z,92.03
2022-12-23T02:50:57.596Z,91.50
2022-12-23T02:55:04.292Z,92.08
2022-12-23T02:59:10.262Z,92.23
2022-12-23T03:03:11.851Z,91.69
2022-12-23T03:07:19.182Z,91.26
2022-12-23T03:11:20.637Z,91.15
2022-12-23T03:15:32.198Z,91.14
2022-12-23T03:19:42.588Z,90.32
2022-12-23T03:23:55.701Z,89.73
2022-12-23T03:28:05.147Z,89.17
2022-12-23T03:32:08.080Z,88.79
2022-12-23T03:36:14.908Z,88.20
2022-12-23T03:40:22.510Z,88.11
2022-12-23T03:44:28.246Z,87.54
2022-12-23T03:48:34.554Z,88.53
2022-12-23T03:52:41.289Z,88.84
2022-12-23T03:56:51.113Z,88.87
2022-12-23T04:00:59.670Z,88.92
2022-12-23T04:05:11.910Z,88.72
2022-12-23T04:09:21.518Z,88.93
2022-12-23T04:13:26.158Z,88.53
2022-12-23T04:17:28.608Z,88.08
2022-12-23T04:21:30.027Z,87.87
2022-12-23T04:25:31.457Z,87.86
2022-12-23T04:29:34.668Z,88.01
2022-12-23T04:33:36.072Z,88.41
2022-12-23T04:37:38.201Z,87.80
2022-12-23T04:41:39.592Z,88.26
2022-12-23T04:45:42.325Z,87.72
2022-12-23T04:49:43.753Z,87.18
2022-12-23T04:53:45.163Z,87.06
2022-12-23T04:57:46.567Z,87.21
2022-12-23T05:01:49.442Z,85.39
2022-12-23T05:05:50.971Z,85.30
2022-12-23T05:09:52.427Z,86.35
2022-12-23T05:13:53.856Z,85.15
2022-12-23T05:17:56.579Z,84.98
2022-12-23T05:21:57.973Z,84.36
2022-12-23T05:25:59.409Z,84.83
2022-12-23T05:30:00.800Z,84.32
2022-12-23T05:34:06.694Z,84.02
2022-12-23T05:38:08.433Z,84.82
2022-12-23T05:42:09.845Z,84.23
2022-12-23T05:46:12.137Z,84.18
2022-12-23T05:50:15.143Z,83.97
2022-12-23T05:54:16.555Z,82.81
2022-12-23T05:58:18.146Z,83.35
2022-12-23T06:02:19.676Z,83.55
2022-12-23T06:06:22.472Z,83.23
2022-12-23T06:10:24.749Z,83.53
2022-12-23T06:14:29.095Z,83.04
2022-12-23T06:18:31.012Z,83.15
2022-12-23T06:22:33.799Z,83.75
2022-12-23T06:26:35.268Z,83.96
2022-12-23T06:30:36.784Z,84.40
2022-12-23T06:34:38.192Z,85.61
2022-12-23T06:38:40.945Z,85.33
2022-12-23T06:42:42.372Z,85.59
2022-12-23T06:46:43.893Z,89.22
2022-12-23T06:50:45.603Z,90.34
2022-12-23T06:54:48.344Z,91.19
2022-12-23T06:58:49.763Z,92.64
2022-12-23T07:02:53.286Z,93.28
2022-12-23T07:06:54.852Z,93.71
2022-12-23T07:10:59.309Z,92.93
2022-12-23T07:15:00.716Z,92.91
2022-12-23T07:19:02.120Z,93.29
2022-12-23T07:23:03.540Z,92.98
2022-12-23T07:27:06.277Z,93.37
2022-12-23T07:31:07.923Z,94.14
2022-12-23T07:35:09.739Z,94.00
2022-12-23T07:39:11.178Z,93.52
2022-12-23T07:43:14.243Z,93.08
2022-12-23T07:47:15.664Z,92.50
2022-12-23T07:51:17.073Z,91.76
2022-12-23T07:55:18.547Z,91.75
2022-12-23T07:59:21.312Z,93.12
2022-12-23T08:03:22.794Z,92.53
2022-12-23T08:07:24.294Z,93.40
2022-12-23T08:11:25.717Z,93.65
2022-12-23T08:15:28.456Z,94.75
2022-12-23T08:19:29.874Z,94.63
2022-12-23T08:23:32.019Z,92.94
2022-12-23T08:27:33.473Z,92.49
2022-12-23T08:31:36.224Z,92.42
2022-12-23T08:35:37.603Z,90.87
2022-12-23T08:39:39.207Z,92.41
2022-12-23T08:43:41.115Z,92.64
2022-12-23T08:47:43.864Z,93.48
2022-12-23T08:51:47.671Z,92.93
2022-12-23T08:55:49.304Z,95.15
2022-12-23T08:59:50.761Z,94.52
2022-12-23T09:03:53.971Z,93.48
2022-12-23T09:07:55.866Z,92.68
2022-12-23T09:11:57.936Z,92.55
2022-12-23T09:15:59.550Z,92.90
2022-12-23T09:20:02.314Z,92.34
2022-12-23T09:24:04.239Z,92.03
2022-12-23T09:28:06.750Z,90.18
2022-12-23T09:32:08.173Z,89.32
2022-12-23T09:36:10.908Z,88.71
2022-12-23T09:40:13.964Z,87.55
2022-12-23T09:44:34.985Z,88.57
2022-12-23T09:48:41.039Z,87.68
2022-12-23T09:52:47.599Z,86.52
2022-12-23T09:56:52.695Z,86.74
2022-12-23T10:01:06.640Z,85.98
2022-12-23T10:05:21.487Z,85.06
2022-12-23T10:09:24.487Z,84.17
2022-12-23T10:13:28.902Z,84.50
2022-12-23T10:17:38.694Z,83.59
2022-12-23T10:21:47.313Z,83.75
2022-12-23T10:25:52.396Z,82.58
2022-12-23T10:29:53.835Z,82.81
2022-12-23T10:34:02.698Z,82.26
2022-12-23T10:38:29.742Z,82.60
2022-12-23T10:42:37.441Z,82.53
2022-12-23T10:46:48.986Z,82.38
2022-12-23T10:50:58.123Z,81.76
2022-12-23T10:54:59.578Z,81.39
2022-12-23T10:59:07.020Z,82.19
2022-12-23T11:03:17.443Z,81.73
2022-12-23T11:11:53.307Z,81.58
2022-12-23T11:16:11.632Z,81.71
2022-12-23T11:20:15.906Z,80.63
2022-12-23T11:24:19.519Z,80.62
2022-12-23T11:28:20.985Z,80.94
2022-12-23T11:32:26.243Z,80.72
2022-12-23T11:36:30.068Z,80.12
2022-12-23T11:40:35.285Z,78.80
2022-12-23T11:44:41.541Z,79.14
2022-12-23T11:48:44.360Z,77.64
2022-12-23T11:52:51.225Z,77.37
2022-12-23T11:56:54.402Z,77.61
2022-12-23T12:00:57.904Z,78.20
2022-12-23T12:05:04.783Z,77.01
2022-12-23T12:09:06.365Z,78.02
2022-12-23T12:13:20.021Z,78.69
2022-12-23T12:17:24.160Z,78.30
2022-12-23T12:21:30.920Z,78.27
2022-12-23T12:25:39.829Z,77.93
2022-12-23T12:29:45.825Z,77.53
2022-12-23T12:33:49.489Z,77.92
2022-12-23T12:37:57.312Z,78.26
2022-12-23T12:42:06.054Z,78.09
2022-12-23T12:46:21.228Z,77.83
2022-12-23T12:50:26.707Z,78.04
2022-12-23T12:54:35.145Z,78.85
2022-12-23T12:58:37.645Z,78.26
2022-12-23T13:03:00.142Z,79.27
2022-12-23T13:07:11.125Z,78.31
2022-12-23T13:11:24.903Z,79.01
2022-12-23T13:15:34.404Z,78.35
2022-12-23T13:19:42.224Z,78.55
2022-12-23T13:23:51.991Z,79.75
2022-12-23T13:27:56.969Z,78.23
2022-12-23T13:32:04.386Z,79.14
2022-12-23T13:36:19.305Z,80.20
2022-12-23T13:40:36.364Z,79.57
2022-12-23T13:44:40.235Z,79.53
2022-12-23T13:48:52.740Z,80.76
2022-12-23T13:53:06.617Z,79.79
2022-12-23T13:57:16.376Z,81.48
2022-12-23T14:01:33.583Z,81.57
2022-12-23T14:05:37.801Z,81.93
2022-12-23T14:09:39.352Z,82.05
2022-12-23T14:13:43.940Z,82.65
2022-12-23T14:17:59.689Z,82.10
2022-12-23T14:22:20.185Z,82.45
2022-12-23T14:26:43.779Z,83.05
2022-12-23T14:30:45.203Z,82.73
2022-12-23T14:35:23.122Z,82.89
2022-12-23T14:39:30.892Z,84.19
2022-12-23T14:43:48.506Z,84.24
2022-12-23T14:47:51.133Z,83.99
2022-12-23T14:51:53.996Z,83.87
2022-12-23T14:56:11.908Z,83.84
2022-12-23T15:00:13.635Z,84.38
2022-12-23T15:04:19.459Z,83.36
2022-12-23T15:08:29.894Z,83.16
2022-12-23T15:12:33.582Z,84.02
2022-12-23T15:16:37.765Z,84.23
2022-12-23T15:20:39.869Z,83.83
2022-12-23T15:24:44.179Z,84.46
2022-12-23T15:28:45.810Z,84.46
2022-12-23T15:32:52.484Z,83.60
2022-12-23T15:36:54.542Z,83.98
2022-12-23T15:40:59.698Z,84.55
2022-12-23T15:45:01.426Z,84.66
2022-12-23T15:49:03.154Z,85.55
2022-12-23T15:53:06.741Z,84.03
2022-12-23T15:57:17.766Z,85.41
2022-12-23T16:01:20.343Z,85.80
2022-12-23T16:05:27.629Z,85.89
2022-12-23T16:09:33.659Z,85.64
2022-12-23T16:13:39.156Z,85.56
2022-12-23T16:17:44.502Z,85.33
2022-12-23T16:21:45.932Z,85.04
2022-12-23T16:25:50.785Z,84.80
2022-12-23T16:29:54.306Z,83.32
2022-12-23T16:33:58.047Z,83.75
2022-12-23T16:38:10.526Z,84.66
2022-12-23T16:42:11.993Z,83.92
2022-12-23T16:46:16.295Z,84.80
2022-12-23T16:50:17.797Z,84.43
2022-12-23T16:54:20.351Z,84.51
2022-12-23T16:58:21.829Z,84.07
2022-12-23T17:02:27.041Z,84.49
2022-12-23T17:06:28.679Z,83.62
2022-12-23T17:10:30.126Z,83.35
2022-12-23T17:14:31.652Z,83.72
2022-12-23T17:18:34.422Z,84.40
2022-12-23T17:22:36.861Z,84.35
2022-12-23T17:26:38.626Z,84.27
2022-12-23T17:30:40.225Z,84.65
2022-12-23T17:34:43.062Z,84.32
2022-12-23T17:38:44.488Z,83.98
2022-12-23T17:42:46.846Z,83.63
2022-12-23T17:46:48.332Z,84.77
2022-12-23T17:50:51.094Z,84.89
2022-12-23T17:54:52.508Z,85.51
2022-12-23T17:58:54.352Z,85.53
2022-12-23T18:02:55.822Z,86.69
2022-12-23T18:06:58.571Z,86.29
2022-12-23T18:11:00.022Z,86.03
2022-12-23T18:15:02.268Z,85.73
2022-12-23T18:19:03.724Z,86.73
2022-12-23T18:23:06.653Z,87.59
2022-12-23T18:27:13.569Z,87.52
2022-12-23T18:31:17.200Z,87.03
2022-12-23T18:35:28.456Z,86.64
2022-12-23T18:39:31.221Z,86.53
2022-12-23T18:43:32.710Z,86.83
2022-12-23T18:47:34.177Z,87.06
2022-12-23T18:51:35.632Z,87.24
2022-12-23T18:55:38.397Z,87.71
2022-12-23T18:59:39.813Z,88.36
2022-12-23T19:03:41.943Z,90.07
2022-12-23T19:07:43.657Z,90.92
2022-12-23T19:11:48.633Z,92.12
2022-12-23T19:15:50.481Z,92.05
2022-12-23T19:19:52.018Z,92.43
2022-12-23T19:23:53.446Z,93.32
2022-12-23T19:27:56.708Z,94.30
2022-12-23T19:31:58.194Z,94.87
2022-12-23T19:35:59.666Z,94.92
2022-12-23T19:40:01.194Z,95.15
2022-12-23T19:44:04.432Z,95.49
2022-12-23T19:48:06.125Z,96.38
2022-12-23T19:52:07.624Z,95.94
2022-12-23T19:56:11.927Z,96.39
2022-12-23T20:00:15.767Z,96.53
2022-12-23T20:04:17.372Z,96.26
2022-12-23T20:08:18.793Z,95.83
2022-12-23T20:12:20.244Z,96.49
2022-12-23T20:16:23.246Z,95.63
2022-12-23T20:20:24.970Z,95.95
2022-12-23T20:24:27.055Z,95.81
2022-12-23T20:28:29.046Z,95.82
2022-12-23T20:32:31.952Z,96.11
2022-12-23T20:36:35.480Z,96.14
2022-12-23T20:40:37.109Z,95.83
2022-12-23T20:44:38.621Z,95.68
2022-12-23T20:48:42.113Z,95.89
2022-12-23T20:52:43.664Z,95.72
2022-12-23T20:56:45.145Z,96.03
2022-12-23T21:00:46.594Z,95.81
2022-12-23T21:04:49.457Z,96.32
2022-12-23T21:08:51.609Z,96.15
2022-12-23T21:12:53.259Z,95.19
2022-12-23T21:16:54.819Z,95.56
2022-12-23T21:20:59.671Z,96.23
2022-12-23T21:25:01.181Z,95.78
2022-12-23T21:29:05.100Z,95.66
2022-12-23T21:33:06.502Z,96.30
2022-12-23T21:37:09.247Z,96.58
2022-12-23T21:41:12.600Z,96.20
2022-12-23T21:45:14.208Z,96.19
2022-12-23T21:49:15.621Z,96.30
2022-12-23T21:53:18.476Z,95.46
2022-12-23T21:57:19.905Z,95.88
2022-12-23T22:01:21.905Z,96.35
2022-12-23T22:05:24.542Z,96.16
2022-12-23T22:09:27.302Z,97.13
2022-12-23T22:13:28.702Z,96.88
2022-12-23T22:17:30.105Z,96.79
2022-12-23T22:21:32.378Z,97.53
2022-12-23T22:25:35.492Z,97.69
2022-12-23T22:29:37.397Z,98.44
2022-12-23T22:33:38.882Z,98.20
2022-12-23T22:37:40.350Z,98.50
2022-12-23T22:41:43.158Z,98.16
2022-12-23T22:45:44.700Z,98.08
2022-12-23T22:49:46.363Z,98.17
2022-12-23T22:53:48.620Z,97.38
2022-12-23T22:57:51.786Z,96.85
2022-12-23T23:01:53.321Z,95.73
2022-12-23T23:05:56.642Z,95.18
2022-12-23T23:09:58.259Z,96.13
2022-12-23T23:14:01.613Z,95.01
2022-12-23T23:18:03.070Z,93.87
2022-12-23T23:22:04.564Z,94.63
2022-12-23T23:26:06.024Z,87.89
2022-12-23T23:30:10.067Z,91.16
2022-12-23T23:34:11.688Z,94.01
2022-12-23T23:38:13.151Z,93.23
2022-12-23T23:42:14.553Z,93.40
2022-12-23T23:46:17.358Z,93.35
2022-12-23T23:50:19.184Z,91.01
2022-12-23T23:54:20.636Z,91.38
2022-12-23T23:58:22.058Z,92.09
